createdAt,value
2022-09-04T00:07:01.578Z,2.45
2022-09-04T00:12:08.746Z,2.00
2022-09-04T00:17:20.903Z,2.25
2022-09-04T00:22:34.461Z,2.03
2022-09-04T00:27:44.738Z,1.73
2022-09-04T00:32:55.852Z,1.98
2022-09-04T00:38:10.317Z,2.05
2022-09-04T00:43:50.357Z,1.77
2022-09-04T00:49:22.768Z,1.80
2022-09-04T00:54:42.223Z,2.28
2022-09-04T01:00:04.713Z,1.88
2022-09-04T01:05:19.602Z,1.60
2022-09-04T01:10:36.663Z,2.00
2022-09-04T01:15:45.209Z,1.98
2022-09-04T01:21:14.496Z,1.60
2022-09-04T01:26:25.057Z,1.65
2022-09-04T01:31:37.532Z,1.80
2022-09-04T01:36:48.436Z,1.88
2022-09-04T01:42:01.864Z,1.80
2022-09-04T01:47:12.420Z,2.10
2022-09-04T01:52:33.356Z,1.75
2022-09-04T01:57:47.261Z,2.10
2022-09-04T02:03:02.271Z,1.95
2022-09-04T02:08:21.906Z,1.90
2022-09-04T02:13:40.278Z,1.67
2022-09-04T02:18:55.872Z,1.70
2022-09-04T02:24:14.407Z,1.70
2022-09-04T02:29:26.670Z,1.70
2022-09-04T02:34:41.030Z,2.08
2022-09-04T02:39:56.224Z,2.17
2022-09-04T02:45:12.395Z,2.10
2022-09-04T02:50:33.917Z,2.35
2022-09-04T02:55:54.798Z,2.67
2022-09-04T03:01:08.020Z,2.53
2022-09-04T03:06:13.484Z,2.10
2022-09-04T03:11:22.001Z,2.47
2022-09-04T03:16:33.597Z,2.30
2022-09-04T03:21:42.201Z,2.05
2022-09-04T03:26:50.776Z,1.98
2022-09-04T03:32:15.390Z,2.20
2022-09-04T03:37:45.397Z,2.03
2022-09-04T03:43:06.517Z,2.85
2022-09-04T03:48:23.665Z,2.35
2022-09-04T03:53:34.193Z,2.55
2022-09-04T03:58:51.247Z,2.50
2022-09-04T04:04:21.593Z,2.40
2022-09-04T04:09:48.550Z,2.15
2022-09-04T04:15:04.415Z,1.90
2022-09-04T04:20:31.299Z,2.05
2022-09-04T04:25:52.333Z,2.03
2022-09-04T04:31:05.451Z,2.00
2022-09-04T04:41:31.749Z,1.02
2022-09-04T04:46:52.769Z,1.63
2022-09-04T04:52:16.873Z,1.90
2022-09-04T04:57:32.841Z,2.10
2022-09-04T05:02:43.344Z,2.20
2022-09-04T05:07:54.332Z,2.05
2022-09-04T05:13:08.986Z,2.20
2022-09-04T05:18:19.470Z,1.80
2022-09-04T05:23:33.163Z,2.28
2022-09-04T05:28:46.507Z,2.13
2022-09-04T05:33:57.539Z,2.03
2022-09-04T05:39:10.701Z,1.70
2022-09-04T05:44:27.918Z,2.38
2022-09-04T05:49:47.723Z,2.00
2022-09-04T05:55:21.249Z,2.03
2022-09-04T06:00:24.432Z,2.53
2022-09-04T06:05:34.180Z,3.67
2022-09-04T06:10:53.524Z,2.10
2022-09-04T06:16:13.972Z,2.33
2022-09-04T06:21:37.472Z,2.20
2022-09-04T06:27:05.513Z,2.20
2022-09-04T06:32:49.319Z,2.17
2022-09-04T06:38:14.081Z,1.80
2022-09-04T06:43:29.655Z,1.58
2022-09-04T06:48:46.878Z,1.95
2022-09-04T06:54:00.836Z,2.05
2022-09-04T06:59:24.576Z,2.08
2022-09-04T07:04:46.824Z,1.80
2022-09-04T07:09:55.928Z,1.88
2022-09-04T07:15:40.002Z,2.03
2022-09-04T07:20:51.741Z,1.85
2022-09-04T07:26:03.769Z,2.20
2022-09-04T07:31:13.036Z,1.92
2022-09-04T07:36:21.020Z,1.80
2022-09-04T07:41:32.354Z,1.52
2022-09-04T07:46:47.932Z,2.03
2022-09-04T07:51:59.476Z,1.60
2022-09-04T07:57:26.195Z,2.08
2022-09-04T08:02:46.509Z,1.67
2022-09-04T08:08:29.354Z,1.98
2022-09-04T08:13:47.171Z,1.83
2022-09-04T08:19:18.244Z,1.70
2022-09-04T08:24:42.641Z,1.92
2022-09-04T08:30:05.038Z,1.45
2022-09-04T08:35:22.634Z,2.13
2022-09-04T08:40:52.430Z,1.60
2022-09-04T08:46:37.018Z,1.80
2022-09-04T08:52:06.622Z,2.13
2022-09-04T08:57:43.007Z,1.90
2022-09-04T09:03:18.424Z,1.92
2022-09-04T09:08:57.125Z,1.60
2022-09-04T09:14:17.968Z,1.50
2022-09-04T09:19:29.107Z,1.30
2022-09-04T09:25:16.097Z,1.52
2022-09-04T09:30:21.080Z,1.30
2022-09-04T09:36:04.686Z,1.70
2022-09-04T09:41:35.204Z,1.60
2022-09-04T09:47:11.165Z,1.63
2022-09-04T09:52:44.409Z,4.82
2022-09-04T09:58:19.191Z,2.22
2022-09-04T10:03:49.807Z,1.27
2022-09-04T10:09:26.454Z,2.25
2022-09-04T10:15:10.091Z,1.40
2022-09-04T10:20:54.287Z,1.20
2022-09-04T10:26:20.793Z,1.15
2022-09-04T10:31:49.457Z,1.10
2022-09-04T10:37:05.941Z,1.25
2022-09-04T10:42:23.178Z,1.08
2022-09-04T10:47:48.707Z,0.98
2022-09-04T10:53:15.470Z,0.80
2022-09-04T10:58:48.520Z,1.10
2022-09-04T11:04:13.963Z,1.20
2022-09-04T11:10:04.317Z,1.00
2022-09-04T11:15:34.320Z,0.90
2022-09-04T11:21:21.070Z,0.77
2022-09-04T11:27:04.806Z,0.88
2022-09-04T11:32:31.909Z,0.80
2022-09-04T11:37:59.454Z,1.00
2022-09-04T11:43:26.439Z,1.10
2022-09-04T11:49:09.268Z,0.60
2022-09-04T11:54:31.208Z,0.80
2022-09-04T11:59:45.369Z,0.80
2022-09-04T12:05:04.483Z,1.15
2022-09-04T12:10:27.068Z,0.93
2022-09-04T12:16:10.223Z,0.80
2022-09-04T12:21:53.713Z,0.70
2022-09-04T12:27:27.135Z,0.75
2022-09-04T12:32:58.952Z,1.08
2022-09-04T12:43:42.956Z,1.13
2022-09-04T12:48:57.846Z,0.90
2022-09-04T12:54:23.203Z,0.70
2022-09-04T12:59:45.795Z,0.90
2022-09-04T13:04:59.773Z,0.80
2022-09-04T13:10:17.535Z,0.70
2022-09-04T13:15:30.946Z,0.93
2022-09-04T13:20:42.485Z,0.88
2022-09-04T13:25:57.315Z,0.60
2022-09-04T13:31:28.847Z,0.70
2022-09-04T13:41:54.126Z,0.75
2022-09-04T13:47:08.129Z,1.05
2022-09-04T13:52:17.675Z,0.82
2022-09-04T13:57:26.435Z,0.80
2022-09-04T14:02:31.783Z,0.95
2022-09-04T14:07:38.863Z,1.00
2022-09-04T14:13:06.265Z,0.82
2022-09-04T14:18:37.200Z,0.80
2022-09-04T14:23:56.022Z,1.10
2022-09-04T14:29:08.324Z,0.80
2022-09-04T14:34:23.124Z,0.97
2022-09-04T14:39:31.591Z,0.88
2022-09-04T14:44:48.050Z,0.85
2022-09-04T14:49:55.736Z,0.88
2022-09-04T14:54:58.806Z,1.00
2022-09-04T15:00:11.182Z,0.80
2022-09-04T15:05:23.433Z,0.93
2022-09-04T15:10:31.576Z,0.70
2022-09-04T15:15:39.600Z,0.70
2022-09-04T15:20:53.867Z,0.85
2022-09-04T15:26:07.182Z,1.75
2022-09-04T15:31:16.227Z,0.85
2022-09-04T15:36:24.567Z,0.77
2022-09-04T15:41:37.933Z,1.60
2022-09-04T15:46:47.305Z,0.90
2022-09-04T15:51:56.160Z,1.10
2022-09-04T15:57:08.419Z,0.80
2022-09-04T16:02:24.475Z,0.80
2022-09-04T16:07:40.707Z,0.90
2022-09-04T16:12:52.117Z,0.80
2022-09-04T16:17:56.799Z,0.80
2022-09-04T16:23:04.215Z,0.90
2022-09-04T16:28:13.186Z,0.63
2022-09-04T16:33:28.509Z,0.80
2022-09-04T16:38:47.343Z,0.88
2022-09-04T16:44:12.120Z,1.00
2022-09-04T16:49:23.079Z,1.10
2022-09-04T16:54:35.458Z,1.27
2022-09-04T16:59:43.338Z,1.38
2022-09-04T17:04:53.515Z,1.45
2022-09-04T17:10:03.973Z,1.30
2022-09-04T17:15:17.266Z,1.75
2022-09-04T17:20:55.036Z,1.80
2022-09-04T17:29:15.039Z,1.75
2022-09-04T17:31:28.567Z,1.50
2022-09-04T17:40:34.984Z,1.52
2022-09-04T17:42:10.795Z,1.63
2022-09-04T17:47:29.881Z,1.70
2022-09-04T17:52:54.065Z,1.40
2022-09-04T17:58:04.857Z,1.33
2022-09-04T18:03:22.495Z,1.60
2022-09-04T18:08:33.801Z,1.70
2022-09-04T18:13:45.077Z,1.73
2022-09-04T18:18:51.886Z,1.50
2022-09-04T18:24:01.957Z,1.70
2022-09-04T18:30:11.831Z,1.98
2022-09-04T18:37:15.972Z,1.65
2022-09-04T18:40:50.378Z,1.88
2022-09-04T18:50:52.242Z,2.05
2022-09-04T18:51:31.027Z,1.95
2022-09-04T18:56:42.558Z,1.92
2022-09-04T19:01:57.966Z,1.60
2022-09-04T19:07:08.169Z,2.00
2022-09-04T19:12:16.391Z,2.05
2022-09-04T19:17:25.429Z,1.80
2022-09-04T19:22:36.149Z,1.67
2022-09-04T19:27:42.170Z,1.80
2022-09-04T19:33:02.557Z,1.80
2022-09-04T19:42:16.945Z,2.10
2022-09-04T19:46:06.997Z,2.00
2022-09-04T19:52:10.516Z,1.90
2022-09-04T19:54:57.802Z,2.13
2022-09-04T20:00:42.737Z,1.92
2022-09-04T20:05:53.129Z,2.20
2022-09-04T20:11:03.922Z,2.40
2022-09-04T20:16:21.403Z,2.92
2022-09-04T20:21:27.882Z,2.65
2022-09-04T20:26:35.005Z,2.30
2022-09-04T20:31:49.291Z,2.38
2022-09-04T20:37:00.397Z,2.38
2022-09-04T20:42:07.363Z,2.78
2022-09-04T20:52:40.935Z,2.35
2022-09-04T20:53:09.198Z,2.03
2022-09-04T21:02:11.125Z,2.38
2022-09-04T21:04:42.610Z,2.42
2022-09-04T21:09:58.504Z,2.63
2022-09-04T21:15:11.253Z,2.80
2022-09-04T21:20:32.614Z,3.03
2022-09-04T21:25:50.724Z,3.17
2022-09-04T21:31:04.434Z,2.97
2022-09-04T21:36:26.357Z,3.70
2022-09-04T21:41:55.769Z,2.78
2022-09-04T21:47:08.378Z,3.15
2022-09-04T21:52:24.698Z,3.38
2022-09-04T22:02:27.350Z,3.88
2022-09-04T22:03:31.529Z,4.10
2022-09-04T22:13:27.648Z,3.15
2022-09-04T22:14:20.019Z,3.22
2022-09-04T22:19:49.029Z,3.30
2022-09-04T22:25:25.327Z,3.15
2022-09-04T22:30:34.350Z,2.92
2022-09-04T22:36:18.606Z,3.00
2022-09-04T22:41:52.539Z,3.33
2022-09-04T22:47:28.370Z,3.20
2022-09-04T22:52:56.258Z,3.33
2022-09-04T22:58:17.199Z,3.25
2022-09-04T23:03:41.486Z,3.58
2022-09-04T23:13:46.475Z,3.70
2022-09-04T23:14:36.118Z,4.32
2022-09-04T23:26:32.531Z,3.85
2022-09-04T23:26:44.143Z,3.70
2022-09-04T23:31:29.663Z,4.35
2022-09-04T23:37:06.398Z,4.20
2022-09-04T23:42:29.466Z,3.78
2022-09-04T23:47:47.611Z,4.03
2022-09-04T23:53:12.062Z,3.95
